Time;durP1;ratioP1;P1;durP2;ratioP2;P2;SDS_P1;SDS_P2;PMS_P1;PMS_P2;Temp;Humidity;BMP_temperature;BMP_pressure;BME280_temperature;BME280_humidity;BME280_pressure;Samples;Min_cycle;Max_cycle;Signal;HPM_P1;HPM_P2
2023/05/26 00:01:52;;;;;;;6.38;3.30;;;;;;;15.58;100.00;98806.72;5004576;28;20040;-60
2023/05/26 00:04:22;;;;;;;7.03;3.05;;;;;;;15.31;100.00;98763.47;4981038;28;20030;-61
2023/05/26 00:06:54;;;;;;;6.68;3.20;;;;;;;15.49;100.00;98797.28;4999081;28;20033;-61
2023/05/26 00:09:21;;;;;;;6.05;3.22;;;;;;;15.29;100.00;98752.34;5001834;28;20033;-61
2023/05/26 00:11:46;;;;;;;6.40;3.17;;;;;;;15.53;100.00;98793.34;5014280;28;20037;-62
2023/05/26 00:14:15;;;;;;;5.93;3.28;;;;;;;15.48;100.00;98790.44;4990919;28;20469;-60
2023/05/26 00:16:45;;;;;;;6.22;3.00;;;;;;;15.25;100.00;98765.97;5017035;28;21903;-62
2023/05/26 00:19:17;;;;;;;;;;;;;;;15.41;100.00;98792.09;4986316;28;20467;-61
2023/05/26 00:21:46;;;;;;;8.07;2.92;;;;;;;15.36;100.00;98786.53;5001909;28;19927;-60
2023/05/26 00:24:11;;;;;;;6.35;3.00;;;;;;;15.41;100.00;98799.16;5000086;28;20049;-61
2023/05/26 00:26:36;;;;;;;7.10;3.22;;;;;;;15.36;100.00;98795.22;5020650;28;20056;-60
2023/05/26 00:29:05;;;;;;;7.63;3.00;;;;;;;15.34;100.00;98783.28;4999430;28;20041;-61
2023/05/26 00:31:30;;;;;;;6.85;3.10;;;;;;;15.37;100.00;98791.63;5001474;28;21011;-61
2023/05/26 00:33:58;;;;;;;6.57;3.35;;;;;;;15.28;100.00;98779.56;5016076;28;20049;-62
2023/05/26 00:36:27;;;;;;;6.88;3.15;;;;;;;15.30;100.00;98780.19;5004661;28;20148;-61
2023/05/26 00:38:59;;;;;;;5.47;3.20;;;;;;;15.36;100.00;98774.25;5000237;28;20033;-61
2023/05/26 00:41:49;;;;;;;6.85;2.90;;;;;;;15.04;100.00;98737.75;4992727;28;20480;-61
2023/05/26 00:44:15;;;;;;;7.10;3.13;;;;;;;15.28;100.00;98776.13;4980586;28;20482;-61
2023/05/26 00:46:43;;;;;;;5.13;2.70;;;;;;;14.97;100.00;98725.34;4981908;28;20038;-60
2023/05/26 00:49:09;;;;;;;7.03;3.65;;;;;;;15.18;100.00;98768.44;4982500;28;20060;-62
2023/05/26 00:51:37;;;;;;;5.60;3.20;;;;;;;15.22;100.00;98768.94;4994944;28;20420;-62
2023/05/26 00:54:05;;;;;;;6.88;3.22;;;;;;;15.17;100.00;98774.69;4985584;28;20037;-61
2023/05/26 00:56:31;;;;;;;6.25;3.67;;;;;;;15.23;100.00;98765.34;5009879;28;20036;-61
2023/05/26 00:59:03;;;;;;;5.82;2.90;;;;;;;14.95;100.00;98729.94;5004014;28;20025;-60
2023/05/26 01:01:49;;;;;;;9.70;3.17;;;;;;;15.24;100.00;98774.81;4996196;28;20022;-61
2023/05/26 01:04:15;;;;;;;5.90;3.00;;;;;;;15.17;100.00;98774.69;5017106;28;20029;-60
2023/05/26 01:06:46;;;;;;;6.72;3.35;;;;;;;14.98;100.00;98744.47;5000045;28;20119;-60
2023/05/26 01:09:24;;;;;;;8.43;3.00;;;;;;;15.15;100.00;98760.94;5021008;28;20111;-61
2023/05/26 01:12:46;;;;;;;6.20;3.60;;;;;;;15.17;100.00;98766.84;5003720;28;20049;-60
2023/05/26 01:15:15;;;;;;;7.65;3.13;;;;;;;15.17;100.00;98772.88;4985813;28;20065;-60
2023/05/26 01:17:58;;;;;;;6.75;3.08;;;;;;;15.23;100.00;98770.56;4985470;28;20029;-60
2023/05/26 01:20:30;;;;;;;12.00;3.63;;;;;;;15.23;100.00;98774.00;5019538;28;20061;-61
2023/05/26 01:23:08;;;;;;;7.03;3.40;;;;;;;15.27;100.00;98767.44;5016182;28;20400;-62
2023/05/26 01:26:16;;;;;;;6.97;3.20;;;;;;;15.23;100.00;98757.47;4981306;28;20077;-61
2023/05/26 01:28:44;;;;;;;8.65;3.15;;;;;;;15.21;100.00;98749.78;5013526;28;20910;-61
2023/05/26 01:31:10;;;;;;;6.22;2.90;;;;;;;15.03;100.00;98717.78;4982532;28;20037;-60
2023/05/26 01:33:35;;;;;;;7.47;3.10;;;;;;;15.24;100.00;98754.69;4995103;28;20679;-61
2023/05/26 01:36:02;;;;;;;6.90;2.90;;;;;;;15.28;100.00;98742.88;5019058;28;20033;-62
2023/05/26 01:38:33;;;;;;;5.75;3.03;;;;;;;15.17;100.00;98732.78;5016777;28;20036;-63
2023/05/26 01:41:26;;;;;;;7.68;3.28;;;;;;;15.33;100.00;98752.81;5034937;28;20021;-61
2023/05/26 01:44:02;;;;;;;6.97;3.10;;;;;;;15.32;100.00;98757.25;5000017;28;20190;-61
2023/05/26 01:46:38;;;;;;;5.57;2.95;;;;;;;15.19;100.00;98726.38;5022996;28;20025;-60
2023/05/26 01:49:08;;;;;;;8.57;3.13;;;;;;;15.33;100.00;98748.41;5018120;28;20067;-62
2023/05/26 01:51:36;;;;;;;7.70;3.30;;;;;;;15.32;100.00;98761.69;5015698;28;20025;-61
2023/05/26 01:54:08;;;;;;;5.53;2.67;;;;;;;15.05;100.00;98715.81;5020858;28;20037;-61
2023/05/26 01:56:36;;;;;;;5.82;3.03;;;;;;;15.25;100.00;98750.25;5029713;28;20099;-62
2023/05/26 01:59:05;;;;;;;6.20;2.90;;;;;;;14.99;100.00;98731.22;5020188;28;20037;-61
2023/05/26 02:01:36;;;;;;;8.07;2.83;;;;;;;14.83;100.00;98714.75;5015058;28;20368;-60
2023/05/26 02:04:11;;;;;;;8.32;3.00;;;;;;;15.01;100.00;98752.00;5019032;28;20107;-61
2023/05/26 02:06:43;;;;;;;9.52;3.00;;;;;;;15.01;100.00;98749.38;5030812;28;20575;-61
2023/05/26 02:09:08;;;;;;;8.18;3.25;;;;;;;14.66;100.00;98706.97;5017475;28;21284;-61
2023/05/26 02:11:36;;;;;;;8.70;3.35;;;;;;;14.98;100.00;98755.75;5018943;28;20061;-61
2023/05/26 02:14:02;;;;;;;7.15;3.05;;;;;;;14.98;100.00;98753.13;5013266;28;20392;-60
2023/05/26 02:16:27;;;;;;;8.20;3.28;;;;;;;14.96;100.00;98747.25;5019890;28;20041;-62
2023/05/26 02:18:54;;;;;;;10.02;3.45;;;;;;;14.97;100.00;98743.66;5026188;28;20025;-61
2023/05/26 02:21:22;;;;;;;5.93;2.92;;;;;;;14.96;100.00;98749.06;5015225;28;20041;-61
2023/05/26 02:23:47;;;;;;;7.00;3.25;;;;;;;14.93;100.00;98747.63;5011137;28;20033;-61
2023/05/26 02:26:19;;;;;;;7.85;3.10;;;;;;;14.95;100.00;98744.84;5018799;28;20037;-60
2023/05/26 02:29:07;;;;;;;7.13;2.70;;;;;;;14.93;100.00;98741.53;5033478;28;20036;-62
2023/05/26 02:31:39;;;;;;;6.38;2.83;;;;;;;14.95;100.00;98740.41;5004134;28;20659;-60
2023/05/26 02:34:05;;;;;;;7.95;2.92;;;;;;;14.92;100.00;98739.94;5026241;28;20053;-62
2023/05/26 02:36:33;;;;;;;7.45;2.88;;;;;;;14.66;100.00;98706.13;5008561;28;20036;-61
2023/05/26 02:38:58;;;;;;;7.32;2.72;;;;;;;14.86;100.00;98737.97;5030762;28;20199;-61
2023/05/26 02:41:25;;;;;;;6.70;3.28;;;;;;;14.84;100.00;98740.78;5026152;28;20184;-61
2023/05/26 02:43:53;;;;;;;6.30;2.45;;;;;;;14.89;100.00;98742.88;5000907;28;20082;-63
2023/05/26 02:46:20;;;;;;;8.88;3.00;;;;;;;14.84;100.00;98743.41;5017059;28;20031;-60
2023/05/26 02:48:46;;;;;;;5.05;2.63;;;;;;;14.90;100.00;98744.53;5033001;28;20029;-61
2023/05/26 02:51:15;;;;;;;9.30;3.05;;;;;;;14.83;100.00;98735.72;5018783;28;20040;-60
2023/05/26 02:53:49;;;;;;;6.20;3.15;;;;;;;14.63;100.00;98709.91;5034575;28;20040;-61
2023/05/26 02:56:15;;;;;;;7.18;3.00;;;;;;;14.65;100.00;98707.13;5019980;28;20510;-61
2023/05/26 02:58:49;;;;;;;5.70;2.85;;;;;;;14.74;100.00;98738.34;5009846;28;20033;-62
2023/05/26 03:01:25;;;;;;;7.35;3.13;;;;;;;14.61;100.00;98720.53;4997470;28;20033;-61
2023/05/26 03:03:56;;;;;;;9.65;3.00;;;;;;;14.77;100.00;98753.72;4996019;28;20958;-60
2023/05/26 03:06:27;;;;;;;7.47;3.10;;;;;;;14.77;100.00;98763.38;5008193;28;20044;-62
2023/05/26 03:08:55;;;;;;;6.47;2.95;;;;;;;14.74;100.00;98763.69;5038126;28;20051;-61
2023/05/26 03:11:25;;;;;;;6.47;2.95;;;;;;;14.51;100.00;98719.06;5014340;28;20033;-61
2023/05/26 03:13:50;;;;;;;6.68;3.45;;;;;;;14.72;100.00;98749.97;5024557;28;20104;-61
2023/05/26 03:16:15;;;;;;;5.95;2.95;;;;;;;14.74;100.00;98751.41;5015251;28;20558;-61
2023/05/26 03:18:41;;;;;;;6.88;3.25;;;;;;;14.69;100.00;98722.31;5012612;28;20032;-61
2023/05/26 03:21:09;;;;;;;9.80;2.95;;;;;;;14.85;100.00;98745.00;5017130;28;20037;-61
2023/05/26 03:23:40;;;;;;;7.40;3.45;;;;;;;14.84;100.00;98753.03;5015142;28;20116;-61
2023/05/26 03:26:08;;;;;;;6.03;2.75;;;;;;;14.79;100.00;98751.75;5002003;28;20033;-61
2023/05/26 03:28:39;;;;;;;5.45;2.72;;;;;;;14.57;100.00;98721.88;5028081;28;20075;-60
2023/05/26 03:31:26;;;;;;;5.65;3.22;;;;;;;14.83;100.00;98746.19;5017036;28;20091;-60
2023/05/26 03:33:54;;;;;;;8.57;2.80;;;;;;;14.87;100.00;98748.28;5032239;28;20049;-61
2023/05/26 03:36:24;;;;;;;8.23;3.30;;;;;;;14.91;100.00;98749.59;5031863;28;20044;-63
2023/05/26 03:38:50;;;;;;;5.93;2.90;;;;;;;14.85;100.00;98746.81;5017317;28;20049;-61
2023/05/26 03:41:17;;;;;;;6.53;3.30;;;;;;;14.79;100.00;98749.13;5011129;28;20116;-62
2023/05/26 03:43:48;;;;;;;6.70;3.00;;;;;;;14.83;100.00;98740.94;5020253;28;20025;-61
2023/05/26 03:46:15;;;;;;;5.60;2.95;;;;;;;14.89;100.00;98750.72;5013107;28;20510;-61
2023/05/26 03:48:40;;;;;;;7.60;2.75;;;;;;;14.88;100.00;98743.88;5033629;28;20030;-62
2023/05/26 03:51:05;;;;;;;7.30;2.80;;;;;;;14.92;100.00;98739.94;5010054;28;20138;-61
2023/05/26 03:53:34;;;;;;;7.20;2.80;;;;;;;14.91;100.00;98743.50;5017129;28;20040;-62
2023/05/26 03:55:59;;;;;;;6.20;2.72;;;;;;;14.83;100.00;98746.97;5013629;28;20029;-61
2023/05/26 03:58:30;;;;;;;8.15;3.00;;;;;;;14.77;100.00;98751.09;5033650;28;20032;-61
2023/05/26 04:00:58;;;;;;;6.93;2.97;;;;;;;14.60;100.00;98739.03;5038823;28;20044;-62
2023/05/26 04:03:23;;;;;;;8.90;2.70;;;;;;;14.61;100.00;98743.28;5011321;28;20296;-61
2023/05/26 04:05:49;;;;;;;5.63;2.70;;;;;;;14.67;100.00;98747.84;5017624;28;20045;-62
2023/05/26 04:08:16;;;;;;;5.75;2.90;;;;;;;14.47;100.00;98710.72;5008521;28;20040;-61
2023/05/26 04:10:44;;;;;;;5.93;2.72;;;;;;;14.62;100.00;98750.16;5014181;28;20037;-61
2023/05/26 04:13:13;;;;;;;8.27;3.13;;;;;;;14.65;100.00;98755.03;5026807;28;20075;-63
2023/05/26 04:15:57;;;;;;;5.10;2.70;;;;;;;14.66;100.00;98750.63;5004673;28;20108;-62
2023/05/26 04:18:25;;;;;;;6.93;3.05;;;;;;;14.42;100.00;98719.09;5016751;28;21846;-61
2023/05/26 04:20:54;;;;;;;9.93;3.30;;;;;;;14.67;100.00;98758.31;5005496;28;20032;-61
2023/05/26 04:23:19;;;;;;;6.22;3.40;;;;;;;14.63;100.00;98754.41;5031255;28;20757;-62
2023/05/26 04:25:45;;;;;;;7.35;3.03;;;;;;;14.68;100.00;98765.19;5027411;28;20112;-61
2023/05/26 04:28:21;;;;;;;5.13;2.60;;;;;;;14.45;100.00;98720.56;5018400;28;20060;-62
2023/05/26 04:30:50;;;;;;;5.55;3.03;;;;;;;14.57;100.00;98758.50;5039026;28;20037;-61
2023/05/26 04:33:23;;;;;;;7.57;3.03;;;;;;;14.63;100.00;98753.59;5036877;28;20578;-61
2023/05/26 04:35:57;;;;;;;6.32;3.13;;;;;;;14.38;100.00;98720.41;5039012;28;21370;-61
2023/05/26 04:38:26;;;;;;;7.10;2.85;;;;;;;14.62;100.00;98755.41;5027990;28;20047;-61
2023/05/26 04:40:51;;;;;;;6.78;3.22;;;;;;;14.71;100.00;98764.03;4999867;28;20040;-62
2023/05/26 04:43:21;;;;;;;7.10;2.78;;;;;;;14.47;100.00;98729.03;5023311;28;20812;-61
2023/05/26 04:45:47;;;;;;;6.60;3.05;;;;;;;14.59;100.00;98753.09;5015471;28;20123;-61
2023/05/26 04:48:20;;;;;;;7.85;3.00;;;;;;;14.45;100.00;98720.56;5029812;28;20045;-60
2023/05/26 04:50:53;;;;;;;7.68;3.15;;;;;;;14.64;100.00;98765.66;5018482;28;20064;-61
2023/05/26 04:53:24;;;;;;;7.97;3.00;;;;;;;14.68;100.00;98767.81;5010104;28;20106;-61
2023/05/26 04:55:52;;;;;;;6.35;3.13;;;;;;;14.70;100.00;98772.88;5022885;28;20040;-61
2023/05/26 04:58:26;;;;;;;7.95;3.53;;;;;;;14.67;100.00;98767.97;5022452;28;20024;-60
2023/05/26 05:00:53;;;;;;;8.75;3.38;;;;;;;14.62;100.00;98760.63;5016882;28;20057;-60
2023/05/26 05:03:26;;;;;;;8.15;3.13;;;;;;;14.65;100.00;98778.59;5002971;28;20094;-61
2023/05/26 05:05:52;;;;;;;7.22;3.38;;;;;;;14.62;100.00;98778.94;5024860;28;20128;-60
2023/05/26 05:08:18;;;;;;;6.28;2.72;;;;;;;14.64;100.00;98781.38;4996458;28;20131;-63
2023/05/26 05:10:45;;;;;;;6.68;3.03;;;;;;;14.58;100.00;98780.25;5018115;28;20048;-60
2023/05/26 05:13:14;;;;;;;10.48;3.60;;;;;;;14.64;100.00;98784.00;5017798;28;20037;-62
2023/05/26 05:15:39;;;;;;;10.30;3.53;;;;;;;14.62;100.00;98789.41;5017712;28;20033;-62
2023/05/26 05:18:10;;;;;;;6.88;3.00;;;;;;;14.67;100.00;98781.84;5034382;28;20043;-62
2023/05/26 05:20:36;;;;;;;7.68;2.63;;;;;;;14.44;100.00;98752.94;5030334;28;20132;-61
2023/05/26 05:23:04;;;;;;;9.73;3.28;;;;;;;14.75;100.00;98791.53;5012765;28;20387;-61
2023/05/26 05:25:32;;;;;;;7.32;3.33;;;;;;;14.74;100.00;98795.91;5018123;28;20059;-61
2023/05/26 05:28:06;;;;;;;6.88;3.20;;;;;;;14.70;100.00;98791.19;5014905;28;20036;-62
2023/05/26 05:30:34;;;;;;;7.25;3.25;;;;;;;14.78;100.00;98789.38;5034428;28;20147;-61
2023/05/26 05:33:09;;;;;;;5.97;2.80;;;;;;;14.84;100.00;98784.44;5005608;28;20072;-62
2023/05/26 05:35:37;;;;;;;7.95;3.05;;;;;;;14.78;100.00;98781.53;4985581;28;20041;-62
2023/05/26 05:38:06;;;;;;;7.22;3.20;;;;;;;14.84;100.00;98784.44;5011258;28;20107;-61
2023/05/26 05:40:31;;;;;;;7.22;3.55;;;;;;;14.78;100.00;98776.28;5026555;28;20040;-63
2023/05/26 05:43:00;;;;;;;7.93;3.22;;;;;;;14.80;100.00;98776.09;5026062;28;20032;-61
2023/05/26 05:45:26;;;;;;;6.65;3.30;;;;;;;14.86;100.00;98785.91;5037030;28;20029;-63
2023/05/26 05:47:51;;;;;;;7.03;2.92;;;;;;;14.96;100.00;98788.34;5035005;28;20055;-61
2023/05/26 05:50:17;;;;;;;7.35;3.22;;;;;;;14.95;100.00;98794.56;5013515;28;20466;-62
2023/05/26 05:52:46;;;;;;;7.22;3.10;;;;;;;14.94;100.00;98790.31;5017628;28;21310;-61
2023/05/26 05:55:17;;;;;;;7.40;3.15;;;;;;;14.88;100.00;98776.09;5017183;28;20029;-62
2023/05/26 05:57:43;;;;;;;8.70;3.30;;;;;;;14.97;100.00;98795.22;5015793;28;20052;-63
2023/05/26 06:00:11;;;;;;;6.85;2.90;;;;;;;14.97;100.00;98792.59;5016178;28;20589;-61
2023/05/26 06:02:45;;;;;;;6.20;3.27;;;;;;;14.88;100.00;98798.84;5006816;28;20037;-62
2023/05/26 06:05:11;;;;;;;6.22;2.83;;;;;;;14.67;100.00;98757.50;5036580;28;20044;-61
2023/05/26 06:07:45;;;;;;;6.15;2.78;;;;;;;14.99;100.00;98796.69;5030782;28;20025;-61
2023/05/26 06:10:14;;;;;;;9.10;3.40;;;;;;;15.05;100.00;98795.19;5017125;28;20033;-61
2023/05/26 06:12:49;;;;;;;8.65;3.10;;;;;;;14.98;100.00;98768.84;5018614;28;20041;-62
2023/05/26 06:15:17;;;;;;;6.65;2.80;;;;;;;15.08;100.00;98768.66;5020690;28;20436;-62
2023/05/26 06:17:46;;;;;;;7.03;2.85;;;;;;;15.26;100.00;98786.75;5017086;28;20539;-61
2023/05/26 06:20:16;;;;;;;8.57;2.80;;;;;;;15.40;100.00;98794.88;5016814;28;20037;-61
2023/05/26 06:22:45;;;;;;;7.55;2.58;;;;;;;15.43;100.00;98795.34;5017092;28;20492;-61
2023/05/26 06:25:13;;;;;;;7.82;2.65;;;;;;;15.43;100.00;98803.22;5032279;28;20041;-61
2023/05/26 06:27:41;;;;;;;6.88;2.80;;;;;;;15.48;100.00;98808.78;5040048;28;20114;-62
2023/05/26 06:30:18;;;;;;;6.53;2.80;;;;;;;15.43;100.00;98813.69;5010973;28;20049;-61
2023/05/26 06:32:51;;;;;;;7.53;2.85;;;;;;;15.37;100.00;98809.16;5033322;28;20060;-62
2023/05/26 06:35:23;;;;;;;7.03;2.80;;;;;;;15.28;100.00;98810.97;4969001;28;20149;-63
2023/05/26 06:37:48;;;;;;;9.68;3.10;;;;;;;15.30;100.00;98813.44;4988933;28;20136;-62
2023/05/26 06:40:16;;;;;;;6.25;2.90;;;;;;;15.32;100.00;98807.03;5017210;28;20033;-62
2023/05/26 06:42:41;;;;;;;7.35;3.10;;;;;;;15.29;100.00;98809.97;5009518;28;20033;-61
2023/05/26 06:45:10;;;;;;;7.53;2.97;;;;;;;15.26;100.00;98807.72;4995166;28;20064;-62
2023/05/26 06:47:38;;;;;;;7.97;3.22;;;;;;;15.04;100.00;98774.41;4985174;28;20656;-63
2023/05/26 06:50:07;;;;;;;6.30;3.05;;;;;;;15.29;100.00;98807.38;5000645;28;20037;-61
2023/05/26 06:52:35;;;;;;;5.18;2.45;;;;;;;15.25;100.00;98811.31;5009484;28;20040;-61
2023/05/26 06:55:06;;;;;;;8.23;2.95;;;;;;;15.27;100.00;98816.38;4993151;28;20982;-63
2023/05/26 06:57:33;;;;;;;6.70;3.00;;;;;;;15.30;100.00;98819.50;4998533;28;20026;-61
2023/05/26 07:00:02;;;;;;;6.18;2.88;;;;;;;15.39;100.00;98804.56;4998266;28;20120;-62
2023/05/26 07:02:30;;;;;;;8.80;3.00;;;;;;;15.38;100.00;98810.78;4982050;28;20045;-61
2023/05/26 07:05:01;;;;;;;10.50;3.50;;;;;;;15.40;100.00;98813.22;4993044;28;20034;-62
2023/05/26 07:07:29;;;;;;;8.57;3.08;;;;;;;15.56;100.00;98816.56;5017579;28;20030;-61
2023/05/26 07:10:00;;;;;;;6.75;3.20;;;;;;;15.62;100.00;98822.13;4996215;28;20021;-63
2023/05/26 07:12:28;;;;;;;6.85;2.88;;;;;;;15.62;100.00;98815.06;4992742;28;20128;-62
2023/05/26 07:14:54;;;;;;;7.55;3.00;;;;;;;15.67;100.00;98802.28;5002059;28;20148;-63
2023/05/26 07:17:22;;;;;;;6.68;3.30;;;;;;;15.76;100.00;98813.56;5010478;28;20152;-61
2023/05/26 07:19:48;;;;;;;6.00;3.00;;;;;;;15.80;100.00;98816.66;5006972;28;20029;-62
2023/05/26 07:22:19;;;;;;;6.93;2.90;;;;;;;15.75;100.00;98814.53;4974225;28;20558;-62
2023/05/26 07:24:47;;;;;;;5.57;2.90;;;;;;;15.79;100.00;98809.75;4998539;28;20025;-62
2023/05/26 07:27:12;;;;;;;5.70;2.80;;;;;;;15.90;100.00;98802.34;4987546;28;20105;-61
2023/05/26 07:29:40;;;;;;;6.50;3.45;;;;;;;15.96;100.00;98813.94;4999517;28;20110;-60
2023/05/26 07:32:08;;;;;;;7.43;2.90;;;;;;;15.85;100.00;98809.91;4971744;28;20034;-61
2023/05/26 07:34:33;;;;;;;8.80;2.78;;;;;;;15.93;100.00;98812.47;4994616;28;20060;-61
2023/05/26 07:37:03;;;;;;;7.05;2.50;;;;;;;15.93;100.00;98811.66;5009824;28;20038;-62
2023/05/26 07:39:37;;;;;;;6.15;2.70;;;;;;;16.15;100.00;98820.50;4994136;28;20476;-61
2023/05/26 07:42:05;;;;;;;5.82;2.83;;;;;;;16.91;100.00;98815.28;5019612;28;20029;-61
2023/05/26 07:44:37;;;;;;;6.55;2.50;;;;;;;17.49;100.00;98821.50;4975886;28;20037;-62
2023/05/26 07:47:11;;;;;;;6.82;2.60;;;;;;;17.90;100.00;98806.19;5010667;28;20040;-61
2023/05/26 07:49:39;;;;;;;6.70;2.70;;;;;;;18.08;100.00;98784.69;4995239;28;20171;-62
2023/05/26 07:52:04;;;;;;;7.07;2.78;;;;;;;18.57;100.00;98807.56;4993034;28;21266;-62
2023/05/26 07:54:37;;;;;;;5.95;2.63;;;;;;;18.61;100.00;98785.13;5015173;28;20040;-62
2023/05/26 07:57:07;;;;;;;7.05;2.50;;;;;;;19.01;100.00;98814.38;4988011;28;20029;-61
2023/05/26 07:59:45;;;;;;;5.88;2.88;;;;;;;18.98;100.00;98814.75;5013896;28;20087;-63
2023/05/26 08:02:15;;;;;;;7.57;2.40;;;;;;;19.21;100.00;98788.13;5011639;28;20021;-62
2023/05/26 08:04:44;;;;;;;5.47;2.70;;;;;;;19.72;100.00;98810.63;4991602;28;20036;-61
2023/05/26 08:07:12;;;;;;;6.90;2.30;;;;;;;20.14;99.57;98808.69;5008569;28;20063;-63
2023/05/26 08:09:40;;;;;;;7.80;2.50;;;;;;;19.95;98.50;98815.53;5000133;28;20033;-62
2023/05/26 08:12:11;;;;;;;6.00;2.42;;;;;;;20.27;97.61;98815.81;5003938;28;20030;-61
2023/05/26 08:14:39;;;;;;;6.30;2.45;;;;;;;20.41;97.83;98808.69;5000850;28;20029;-62
2023/05/26 08:17:12;;;;;;;5.88;2.25;;;;;;;20.95;91.52;98812.91;4982953;28;20034;-62
2023/05/26 08:19:37;;;;;;;6.60;2.28;;;;;;;21.01;90.68;98809.47;4980603;28;20562;-61
2023/05/26 08:22:05;;;;;;;6.00;2.58;;;;;;;21.13;88.34;98809.63;5000042;28;20026;-62
2023/05/26 08:24:34;;;;;;;5.85;2.15;;;;;;;21.52;87.14;98809.72;5000195;28;20083;-62
2023/05/26 08:26:59;;;;;;;5.32;2.20;;;;;;;21.82;86.08;98807.31;5002276;28;20056;-61
2023/05/26 08:29:27;;;;;;;6.03;2.40;;;;;;;21.55;84.96;98788.94;4984745;28;20770;-61
2023/05/26 08:31:58;;;;;;;5.00;2.03;;;;;;;22.25;81.57;98796.84;4983160;28;20065;-62
2023/05/26 08:34:28;;;;;;;6.38;2.10;;;;;;;22.76;78.87;98797.66;5003510;28;20053;-62
2023/05/26 08:37:00;;;;;;;6.28;2.20;;;;;;;22.79;75.65;98797.19;4999311;28;20032;-61
2023/05/26 08:39:31;;;;;;;7.15;2.20;;;;;;;22.95;74.00;98800.31;4991001;28;20132;-61
2023/05/26 08:42:03;;;;;;;6.18;2.10;;;;;;;22.58;72.39;98789.66;4994375;28;20041;-61
2023/05/26 08:44:29;;;;;;;5.50;2.05;;;;;;;22.65;72.88;98793.03;4983329;28;20037;-62
2023/05/26 08:46:57;;;;;;;7.05;2.20;;;;;;;22.86;71.78;98794.47;4984166;28;20034;-61
2023/05/26 08:49:26;;;;;;;6.18;2.15;;;;;;;23.63;70.55;98793.19;4985859;28;20029;-59
2023/05/26 08:52:06;;;;;;;7.22;2.63;;;;;;;24.20;68.41;98785.63;4986512;28;20164;-61
2023/05/26 08:54:40;;;;;;;7.28;2.97;;;;;;;24.27;68.07;98770.38;4981226;28;20037;-62
2023/05/26 08:57:15;;;;;;;5.18;2.03;;;;;;;24.65;64.21;98771.81;4973785;28;20170;-61
2023/05/26 08:59:43;;;;;;;6.57;2.08;;;;;;;25.35;61.04;98778.03;4997031;28;20144;-61
2023/05/26 09:02:09;;;;;;;4.85;2.03;;;;;;;25.20;59.70;98780.38;4999589;28;20025;-62
2023/05/26 09:04:47;;;;;;;6.90;2.22;;;;;;;24.90;59.37;98752.13;4998438;28;20048;-59
2023/05/26 09:07:18;;;;;;;5.67;2.10;;;;;;;25.22;56.70;98779.09;4981423;28;20140;-61
2023/05/26 09:09:50;;;;;;;5.97;2.10;;;;;;;24.51;60.85;98781.03;4985719;28;20120;-61
2023/05/26 09:12:19;;;;;;;6.47;2.85;;;;;;;24.06;61.83;98747.03;4993243;28;20049;-62
2023/05/26 09:14:44;;;;;;;7.50;2.10;;;;;;;23.94;61.29;98777.03;5003761;28;20383;-60
2023/05/26 09:17:15;;;;;;;4.70;2.10;;;;;;;24.20;61.95;98763.56;5004765;28;20465;-61
2023/05/26 09:19:47;;;;;;;5.50;2.03;;;;;;;24.39;60.96;98762.44;4984742;28;21315;-60
2023/05/26 09:22:22;;;;;;;5.10;1.95;;;;;;;24.48;60.98;98766.38;4990434;28;20435;-62
2023/05/26 09:24:53;;;;;;;7.13;1.90;;;;;;;24.68;59.49;98759.88;4987905;28;20662;-59
2023/05/26 09:27:21;;;;;;;6.55;1.90;;;;;;;24.34;59.04;98764.97;5008554;28;20108;-60
2023/05/26 09:29:57;;;;;;;5.15;2.05;;;;;;;24.34;59.92;98762.31;5004741;28;20034;-61
2023/05/26 09:32:29;;;;;;;5.63;2.25;;;;;;;24.96;57.76;98751.19;4999826;28;20025;-58
2023/05/26 09:35:07;;;;;;;5.93;1.95;;;;;;;24.65;58.17;98753.19;4993475;28;20059;-59
2023/05/26 09:37:35;;;;;;;6.93;2.65;;;;;;;24.95;59.69;98749.56;5003019;28;20037;-62
2023/05/26 09:40:08;;;;;;;4.43;2.08;;;;;;;24.59;59.49;98734.72;4992969;28;20057;-59
2023/05/26 09:42:36;;;;;;;6.55;2.83;;;;;;;24.18;61.31;98755.81;4969053;28;20033;-58
2023/05/26 09:45:10;;;;;;;5.68;2.10;;;;;;;23.40;64.10;98738.97;4989147;28;20030;-62
2023/05/26 09:47:35;;;;;;;6.30;2.10;;;;;;;23.69;65.17;98744.50;4964086;28;20033;-62
2023/05/26 09:50:05;;;;;;;7.15;2.10;;;;;;;23.39;62.41;98750.66;4983495;28;20121;-61
2023/05/26 09:52:39;;;;;;;5.72;2.50;;;;;;;23.17;63.48;98747.66;5004611;28;20088;-61
2023/05/26 09:55:08;;;;;;;7.68;2.83;;;;;;;22.98;66.18;98728.25;5004621;28;20114;-62
2023/05/26 09:57:38;;;;;;;7.75;2.38;;;;;;;22.89;66.12;98709.22;4976405;28;20033;-60
2023/05/26 10:00:10;;;;;;;8.85;3.00;;;;;;;23.11;64.38;98737.94;4999838;28;20120;-58
2023/05/26 10:02:39;;;;;;;7.32;2.40;;;;;;;23.04;64.60;98735.38;4995579;28;20133;-61
2023/05/26 10:05:06;;;;;;;6.03;2.40;;;;;;;22.93;71.00;98713.03;4995195;28;20033;-61
2023/05/26 10:07:37;;;;;;;8.55;2.38;;;;;;;22.96;64.69;98730.34;4995470;28;20022;-58
2023/05/26 10:10:06;;;;;;;5.45;2.80;;;;;;;23.02;63.41;98726.81;4998685;28;20029;-61
2023/05/26 10:12:38;;;;;;;5.07;2.67;;;;;;;23.12;63.29;98731.59;4990577;28;20050;-60
2023/05/26 10:15:07;;;;;;;7.93;2.40;;;;;;;23.13;62.39;98725.28;5004886;28;20060;-62
2023/05/26 10:17:38;;;;;;;5.53;2.60;;;;;;;23.19;61.75;98729.69;5002512;28;20022;-58
2023/05/26 10:20:04;;;;;;;5.28;2.60;;;;;;;23.29;62.11;98727.31;4999299;28;20018;-58
2023/05/26 10:22:52;;;;;;;7.60;2.65;;;;;;;23.17;61.08;98727.25;4989344;28;20037;-58
2023/05/26 10:25:25;;;;;;;6.68;2.47;;;;;;;23.35;61.95;98721.09;5009417;28;20120;-58
2023/05/26 10:28:00;;;;;;;7.45;2.55;;;;;;;23.33;61.91;98709.91;5014695;28;20032;-59
2023/05/26 10:30:29;;;;;;;6.95;2.50;;;;;;;23.37;61.40;98708.41;5008779;28;20387;-59
2023/05/26 10:33:13;;;;;;;6.47;2.40;;;;;;;23.16;61.21;98680.56;5007741;28;20091;-60
2023/05/26 10:35:53;;;;;;;7.68;2.28;;;;;;;23.31;61.08;98704.03;5010900;28;20025;-61
2023/05/26 10:38:43;;;;;;;5.80;2.60;;;;;;;23.35;60.92;98704.38;5012016;28;20148;-59
2023/05/26 10:41:15;;;;;;;5.47;2.40;;;;;;;23.30;59.92;98688.31;5009796;28;20037;-58
2023/05/26 10:43:43;;;;;;;7.60;2.35;;;;;;;23.41;59.42;98698.97;5007636;28;20187;-59
2023/05/26 10:46:11;;;;;;;5.20;2.58;;;;;;;23.21;58.69;98664.75;5002905;28;20361;-61
2023/05/26 10:48:55;;;;;;;5.25;2.35;;;;;;;23.52;59.04;98693.94;5017120;28;21021;-61
2023/05/26 10:51:31;;;;;;;5.18;2.42;;;;;;;23.53;58.62;98690.22;5013365;28;20138;-60
2023/05/26 10:54:11;;;;;;;6.88;2.45;;;;;;;23.51;57.72;98676.38;5027819;28;20025;-60
2023/05/26 10:56:45;;;;;;;7.10;2.60;;;;;;;23.48;55.96;98647.66;5023704;28;20025;-58
2023/05/26 10:59:24;;;;;;;5.82;2.42;;;;;;;23.86;55.35;98676.47;5011209;28;20125;-61
2023/05/26 11:01:53;;;;;;;7.80;2.63;;;;;;;23.73;53.29;98674.00;5031106;28;20128;-61
2023/05/26 11:04:24;;;;;;;6.65;2.17;;;;;;;23.86;56.64;98675.66;5010201;28;20071;-60
2023/05/26 11:06:59;;;;;;;5.10;2.60;;;;;;;23.85;56.63;98679.38;5002964;28;20048;-61
2023/05/26 11:09:31;;;;;;;6.90;2.75;;;;;;;23.88;56.40;98673.59;5002992;28;20183;-59
2023/05/26 11:12:15;;;;;;;6.25;2.55;;;;;;;23.79;57.24;98673.09;5004422;28;20121;-59
2023/05/26 11:14:40;;;;;;;5.70;2.40;;;;;;;23.90;54.96;98632.50;5010105;28;20458;-58
2023/05/26 11:17:12;;;;;;;8.57;2.70;;;;;;;24.06;55.70;98670.84;5010284;28;20024;-59
2023/05/26 11:19:42;;;;;;;6.50;2.50;;;;;;;24.19;55.67;98661.84;5009479;28;20491;-58
2023/05/26 11:22:22;;;;;;;5.30;2.55;;;;;;;24.16;53.79;98665.75;5026961;28;20052;-59
2023/05/26 11:24:55;;;;;;;6.40;2.47;;;;;;;24.19;55.05;98659.19;5010556;28;20043;-59
2023/05/26 11:27:28;;;;;;;6.80;2.60;;;;;;;24.18;51.96;98663.66;5016222;28;20040;-59
2023/05/26 11:30:01;;;;;;;6.78;2.38;;;;;;;24.17;52.53;98651.44;5023261;28;20041;-59
2023/05/26 11:32:36;;;;;;;5.70;2.55;;;;;;;23.99;51.03;98633.75;5017495;28;20146;-58
2023/05/26 11:35:08;;;;;;;6.13;2.50;;;;;;;24.13;50.31;98652.13;5020546;28;20132;-60
2023/05/26 11:37:39;;;;;;;6.68;2.47;;;;;;;24.10;50.20;98644.63;5014709;28;20033;-61
2023/05/26 11:40:06;;;;;;;4.93;2.08;;;;;;;24.14;50.45;98613.91;4999712;28;20108;-60
2023/05/26 11:42:37;;;;;;;5.75;2.58;;;;;;;24.30;50.30;98650.38;5008383;28;20025;-61